Time;durP1;ratioP1;P1;durP2;ratioP2;P2;SDS_P1;SDS_P2;PMS_P1;PMS_P2;Temp;Humidity;BMP_temperature;BMP_pressure;BME280_temperature;BME280_humidity;BME280_pressure;Samples;Min_cycle;Max_cycle;Signal;HPM_P1;HPM_P2
2021/03/15 00:00:20;;;;;;;30.92;5.80;;;;;;;-143.98;100.00;68091.63;5076951;28;20262;-81
2021/03/15 00:02:51;;;;;;;19.67;4.30;;;;;;;-143.98;100.00;68091.63;5074988;28;20066;-81
2021/03/15 00:05:19;;;;;;;27.85;3.83;;;;;;;-143.98;100.00;68091.63;5075346;28;20262;-80
2021/03/15 00:07:49;;;;;;;33.08;3.92;;;;;;;-143.98;100.00;68091.63;5074176;28;20066;-80
2021/03/15 00:10:17;;;;;;;24.30;3.78;;;;;;;-143.98;100.00;68091.63;5057923;28;20063;-81
2021/03/15 00:12:54;;;;;;;18.27;3.47;;;;;;;-143.98;100.00;68091.63;5061137;28;20486;-80
2021/03/15 00:15:22;;;;;;;19.23;3.63;;;;;;;-143.98;100.00;68091.63;5076226;28;20189;-81
2021/03/15 00:17:51;;;;;;;27.40;4.10;;;;;;;-143.98;100.00;68091.63;5075266;28;20052;-81
2021/03/15 00:20:19;;;;;;;23.27;4.03;;;;;;;-143.98;100.00;68091.63;5090693;28;20061;-80
2021/03/15 00:22:49;;;;;;;14.15;4.05;;;;;;;-143.98;100.00;68091.63;5074873;28;20044;-80
2021/03/15 00:25:17;;;;;;;18.67;3.33;;;;;;;-143.98;100.00;68091.63;5071314;28;20075;-80
2021/03/15 00:27:50;;;;;;;20.63;3.28;;;;;;;-143.98;100.00;68091.63;5071006;28;20057;-80
2021/03/15 00:30:18;;;;;;;20.55;4.05;;;;;;;-143.98;100.00;68091.63;5056851;28;20052;-81
2021/03/15 00:32:46;;;;;;;21.40;4.25;;;;;;;-143.98;100.00;68091.63;5073019;28;20067;-81
2021/03/15 00:35:14;;;;;;;17.38;3.75;;;;;;;-143.98;100.00;68091.63;5056442;28;20048;-81
2021/03/15 00:37:41;;;;;;;17.35;2.97;;;;;;;-143.98;100.00;68091.63;5073627;28;20434;-81
2021/03/15 00:40:13;;;;;;;15.45;3.38;;;;;;;-143.98;100.00;68091.63;5057393;28;20060;-80
2021/03/15 00:42:42;;;;;;;24.90;3.40;;;;;;;-143.98;100.00;68091.63;5073011;28;20048;-81
2021/03/15 00:45:09;;;;;;;11.30;3.20;;;;;;;-143.98;100.00;68091.63;5075428;28;20060;-81
2021/03/15 00:47:35;;;;;;;15.82;3.53;;;;;;;-143.98;100.00;68091.63;5075663;28;20044;-80
2021/03/15 00:50:05;;;;;;;20.73;3.47;;;;;;;-143.98;100.00;68091.63;5071991;28;20052;-80
2021/03/15 00:52:32;;;;;;;16.40;3.08;;;;;;;-143.98;100.00;68091.63;5068695;28;20208;-80
2021/03/15 00:55:00;;;;;;;14.30;3.85;;;;;;;-143.98;100.00;68091.63;5074133;28;20143;-80
2021/03/15 00:57:26;;;;;;;13.00;3.45;;;;;;;-143.98;100.00;68091.63;5073000;28;20091;-82
2021/03/15 00:59:54;;;;;;;10.60;3.50;;;;;;;-143.98;100.00;68091.63;5057717;28;20083;-82
2021/03/15 01:02:21;;;;;;;13.98;4.13;;;;;;;-143.98;100.00;68091.63;5058103;28;20305;-82
2021/03/15 01:04:50;;;;;;;16.15;3.88;;;;;;;-143.98;100.00;68091.63;5074557;28;20044;-82
2021/03/15 01:07:19;;;;;;;13.07;4.20;;;;;;;-143.98;100.00;68091.63;5075192;28;20044;-82
2021/03/15 01:09:50;;;;;;;11.90;3.67;;;;;;;-143.98;100.00;68091.63;5058476;28;20063;-82
2021/03/15 01:12:16;;;;;;;18.00;4.05;;;;;;;-143.98;100.00;68091.63;5075474;28;20061;-82
2021/03/15 01:14:46;;;;;;;7.57;3.10;;;;;;;-143.98;100.00;68091.63;5074697;28;20056;-82
2021/03/15 01:17:12;;;;;;;8.75;3.25;;;;;;;-143.98;100.00;68091.63;5074786;28;20121;-82
2021/03/15 01:19:39;;;;;;;4.68;2.33;;;;;;;-143.98;100.00;68091.63;5079711;28;20056;-82
2021/03/15 01:22:05;;;;;;;10.90;3.20;;;;;;;-143.98;100.00;68091.63;5084999;28;20052;-82
2021/03/15 01:24:31;;;;;;;6.57;3.42;;;;;;;-143.98;100.00;68091.63;5083128;28;20056;-82
2021/03/15 01:26:57;;;;;;;7.00;2.80;;;;;;;-143.98;100.00;68091.63;5082639;28;20064;-82
2021/03/15 01:29:27;;;;;;;5.85;2.70;;;;;;;-143.98;100.00;68091.63;5060627;28;20057;-82
2021/03/15 01:31:56;;;;;;;8.52;2.30;;;;;;;-143.98;100.00;68091.63;5075205;28;20048;-82
2021/03/15 01:34:23;;;;;;;6.90;2.88;;;;;;;-143.98;100.00;68091.63;5074608;28;20086;-82
2021/03/15 01:37:03;;;;;;;5.65;2.58;;;;;;;-143.98;100.00;68091.63;5075184;28;20306;-82
2021/03/15 01:39:31;;;;;;;8.73;2.85;;;;;;;-143.98;100.00;68091.63;5075740;28;20351;-82
2021/03/15 01:41:59;;;;;;;6.72;2.65;;;;;;;-143.98;100.00;68091.63;5075460;28;20074;-82
2021/03/15 01:44:31;;;;;;;8.25;2.70;;;;;;;-143.98;100.00;68091.63;5075350;28;20115;-82
2021/03/15 01:47:00;;;;;;;6.53;2.88;;;;;;;-143.98;100.00;68091.63;5075896;28;20064;-82
2021/03/15 01:49:27;;;;;;;6.93;2.60;;;;;;;-143.98;100.00;68091.63;5075217;28;20052;-82
2021/03/15 01:51:53;;;;;;;8.90;2.33;;;;;;;-143.98;100.00;68091.63;5058248;28;20079;-82
2021/03/15 01:54:32;;;;;;;10.18;2.75;;;;;;;-143.98;100.00;68091.63;5075910;28;20045;-81
2021/03/15 01:57:01;;;;;;;4.97;3.40;;;;;;;-143.98;100.00;68091.63;5058963;28;20060;-81
2021/03/15 01:59:27;;;;;;;8.00;2.70;;;;;;;-143.98;100.00;68091.63;5074314;28;20048;-81
2021/03/15 02:01:54;;;;;;;6.82;2.97;;;;;;;-143.98;100.00;68091.63;5074075;28;20045;-81
2021/03/15 02:04:23;;;;;;;8.77;2.65;;;;;;;-143.98;100.00;68091.63;5057931;28;20093;-81
2021/03/15 02:06:51;;;;;;;4.75;2.90;;;;;;;-143.98;100.00;68091.63;5059134;28;20052;-81
2021/03/15 02:09:17;;;;;;;6.72;2.78;;;;;;;-143.98;100.00;68091.63;5059586;28;20052;-81
2021/03/15 02:12:08;;;;;;;5.97;2.88;;;;;;;-143.98;100.00;68091.63;5075567;28;20052;-81
2021/03/15 02:15:29;;;;;;;9.38;3.17;;;;;;;-143.98;100.00;68091.63;5075072;28;20161;-81
2021/03/15 02:18:16;;;;;;;6.82;3.55;;;;;;;-143.98;100.00;68091.63;5037200;28;20144;-82
2021/03/15 02:21:11;;;;;;;7.00;3.25;;;;;;;-143.98;100.00;68091.63;5091912;28;20052;-81
2021/03/15 02:23:46;;;;;;;6.20;3.17;;;;;;;-143.98;100.00;68091.63;5078967;28;20288;-82
2021/03/15 02:26:47;;;;;;;7.07;2.92;;;;;;;-143.98;100.00;68091.63;5077960;28;20294;-82
2021/03/15 02:29:58;;;;;;;5.00;2.50;;;;;;;-143.98;100.00;68091.63;5079201;28;20056;-82
2021/03/15 02:32:40;;;;;;;7.68;2.80;;;;;;;-143.98;100.00;68091.63;5078696;28;20125;-83
2021/03/15 02:35:12;;;;;;;7.82;2.53;;;;;;;-143.98;100.00;68091.63;5077714;28;20304;-83
2021/03/15 02:38:10;;;;;;;4.38;2.55;;;;;;;-143.98;100.00;68091.63;5078443;28;20092;-82
2021/03/15 02:40:40;;;;;;;4.93;2.20;;;;;;;-143.98;100.00;68091.63;5078432;28;20484;-83
2021/03/15 02:43:16;;;;;;;5.80;2.63;;;;;;;-143.98;100.00;68091.63;5062528;28;20051;-82
2021/03/15 02:45:43;;;;;;;5.30;2.17;;;;;;;-143.98;100.00;68091.63;5080307;28;20051;-82
2021/03/15 02:48:11;;;;;;;3.50;2.20;;;;;;;-143.98;100.00;68091.63;5067864;28;20055;-82
2021/03/15 02:50:40;;;;;;;7.65;2.30;;;;;;;-143.98;100.00;68091.63;5109858;28;20125;-83
2021/03/15 02:53:10;;;;;;;3.35;2.38;;;;;;;-143.98;100.00;68091.63;5093044;28;20055;-83
2021/03/15 02:55:52;;;;;;;6.65;2.30;;;;;;;-143.98;100.00;68091.63;5085026;28;20265;-83
2021/03/15 02:58:22;;;;;;;4.60;2.15;;;;;;;-143.98;100.00;68091.63;5061288;28;20068;-83
2021/03/15 03:00:49;;;;;;;4.80;2.08;;;;;;;-143.98;100.00;68091.63;5076961;28;20060;-83
2021/03/15 03:03:21;;;;;;;4.03;1.88;;;;;;;-143.98;100.00;68091.63;5060777;28;20060;-83
2021/03/15 03:05:51;;;;;;;5.05;1.90;;;;;;;-143.98;100.00;68091.63;5077441;28;20072;-82
2021/03/15 03:08:21;;;;;;;5.70;2.20;;;;;;;-143.98;100.00;68091.63;5078026;28;20044;-82
2021/03/15 03:10:51;;;;;;;3.80;2.10;;;;;;;-143.98;100.00;68091.63;5061094;28;20393;-82
2021/03/15 03:13:21;;;;;;;5.85;1.77;;;;;;;-143.98;100.00;68091.63;5059491;28;20051;-82
2021/03/15 03:15:49;;;;;;;4.20;2.22;;;;;;;-143.98;100.00;68091.63;5086826;28;20112;-81
2021/03/15 03:18:17;;;;;;;3.30;1.80;;;;;;;-143.98;100.00;68091.63;5090473;28;20068;-82
2021/03/15 03:21:05;;;;;;;2.65;2.10;;;;;;;-143.98;100.00;68091.63;5085209;28;20118;-82
2021/03/15 03:23:37;;;;;;;2.95;1.75;;;;;;;-143.98;100.00;68091.63;5078660;28;20106;-81
2021/03/15 03:26:07;;;;;;;4.38;2.30;;;;;;;-143.98;100.00;68091.63;5062549;28;20147;-81
2021/03/15 03:28:36;;;;;;;4.40;2.30;;;;;;;-143.98;100.00;68091.63;5088690;28;20059;-82
2021/03/15 03:31:05;;;;;;;4.30;2.55;;;;;;;-143.98;100.00;68091.63;5094400;28;20052;-82
2021/03/15 03:33:32;;;;;;;4.15;2.20;;;;;;;-143.98;100.00;68091.63;5066425;28;20157;-81
2021/03/15 03:36:01;;;;;;;5.55;2.60;;;;;;;-143.98;100.00;68091.63;5082508;28;20048;-81
2021/03/15 03:38:42;;;;;;;4.28;2.10;;;;;;;-143.98;100.00;68091.63;5079204;28;20056;-81
2021/03/15 03:41:09;;;;;;;6.57;3.15;;;;;;;-143.98;100.00;68091.63;5091249;28;20048;-81
2021/03/15 03:43:38;;;;;;;7.25;3.45;;;;;;;-143.98;100.00;68091.63;5090995;28;20052;-81
2021/03/15 03:46:05;;;;;;;4.28;2.95;;;;;;;-143.98;100.00;68091.63;5089268;28;20048;-81
2021/03/15 03:48:36;;;;;;;7.32;2.83;;;;;;;-143.98;100.00;68091.63;5072364;28;20052;-82
2021/03/15 03:51:11;;;;;;;6.90;3.67;;;;;;;-143.98;100.00;68091.63;5097148;28;20043;-81
2021/03/15 03:53:42;;;;;;;9.20;3.83;;;;;;;-143.98;100.00;68091.63;5084772;28;20051;-81
2021/03/15 03:56:25;;;;;;;6.40;3.80;;;;;;;-143.98;100.00;68091.63;5079893;28;20063;-81
2021/03/15 03:58:54;;;;;;;8.73;3.60;;;;;;;-143.98;100.00;68091.63;5062986;28;20568;-81
2021/03/15 04:01:28;;;;;;;5.65;3.78;;;;;;;-143.98;100.00;68091.63;5078131;28;20100;-81
2021/03/15 04:03:57;;;;;;;9.68;4.07;;;;;;;-143.98;100.00;68091.63;5064003;28;20112;-81
2021/03/15 04:06:28;;;;;;;5.00;3.50;;;;;;;-143.98;100.00;68091.63;5060860;28;20040;-82
2021/03/15 04:09:02;;;;;;;15.00;4.22;;;;;;;-143.98;100.00;68091.63;5095146;28;20105;-82
2021/03/15 04:11:31;;;;;;;8.73;3.60;;;;;;;-143.98;100.00;68091.63;5077343;28;20226;-81
2021/03/15 04:13:58;;;;;;;8.65;3.75;;;;;;;-143.98;100.00;68091.63;5058801;28;20055;-81
2021/03/15 04:16:33;;;;;;;7.40;3.00;;;;;;;-143.98;100.00;68091.63;5077638;28;20058;-81
2021/03/15 04:19:03;;;;;;;6.43;3.73;;;;;;;-143.98;100.00;68091.63;5078321;28;20036;-81
2021/03/15 04:21:31;;;;;;;4.72;3.70;;;;;;;-143.98;100.00;68091.63;5062661;28;20048;-81
2021/03/15 04:24:04;;;;;;;4.60;3.40;;;;;;;-143.98;100.00;68091.63;5076301;28;20363;-81
2021/03/15 04:26:31;;;;;;;6.07;3.53;;;;;;;-143.98;100.00;68091.63;5108599;28;20071;-81
2021/03/15 04:28:58;;;;;;;8.45;3.38;;;;;;;-143.98;100.00;68091.63;5075478;28;20127;-81
2021/03/15 04:31:26;;;;;;;5.80;4.25;;;;;;;-143.98;100.00;68091.63;5058563;28;20101;-81
2021/03/15 04:33:55;;;;;;;4.53;3.45;;;;;;;-143.98;100.00;68091.63;5074492;28;20055;-81
2021/03/15 04:36:22;;;;;;;4.50;3.20;;;;;;;-143.98;100.00;68091.63;5058925;28;20056;-81
2021/03/15 04:38:51;;;;;;;7.35;3.38;;;;;;;-143.98;100.00;68091.63;5055392;28;20056;-81
2021/03/15 04:41:19;;;;;;;8.23;3.58;;;;;;;-143.98;100.00;68091.63;5074573;28;20151;-82
2021/03/15 04:43:48;;;;;;;4.50;2.92;;;;;;;-143.98;100.00;68091.63;5058584;28;20455;-82
2021/03/15 04:46:17;;;;;;;7.05;3.17;;;;;;;-143.98;100.00;68091.63;5058053;28;20187;-81
2021/03/15 04:48:44;;;;;;;5.85;3.72;;;;;;;-143.98;100.00;68091.63;5058317;28;20053;-81
2021/03/15 04:51:16;;;;;;;5.13;3.53;;;;;;;-143.98;100.00;68091.63;5069736;28;20040;-82
2021/03/15 04:53:46;;;;;;;8.20;3.67;;;;;;;-143.98;100.00;68091.63;5053679;28;20228;-82
2021/03/15 04:56:14;;;;;;;10.10;3.63;;;;;;;-143.98;100.00;68091.63;5072048;28;20090;-82
2021/03/15 04:58:46;;;;;;;4.57;3.25;;;;;;;-143.98;100.00;68091.63;5072222;28;20227;-82
2021/03/15 05:01:19;;;;;;;7.28;3.45;;;;;;;-143.98;100.00;68091.63;5071545;28;20603;-81
2021/03/15 05:03:49;;;;;;;6.82;3.45;;;;;;;-143.98;100.00;68091.63;5087142;28;20276;-81
2021/03/15 05:06:19;;;;;;;5.75;3.65;;;;;;;-143.98;100.00;68091.63;5071630;28;20138;-82
2021/03/15 05:08:47;;;;;;;11.98;4.50;;;;;;;-143.98;100.00;68091.63;5071760;28;20130;-82
2021/03/15 05:11:14;;;;;;;7.15;3.90;;;;;;;-143.98;100.00;68091.63;5054870;28;20123;-82
2021/03/15 05:13:44;;;;;;;8.63;4.20;;;;;;;-143.98;100.00;68091.63;5053945;28;20037;-82
2021/03/15 05:16:13;;;;;;;10.10;4.57;;;;;;;-143.98;100.00;68091.63;5067309;28;20048;-82
2021/03/15 05:18:42;;;;;;;12.48;4.75;;;;;;;-143.98;100.00;68091.63;5067318;28;20048;-82
2021/03/15 05:21:10;;;;;;;13.00;4.90;;;;;;;-143.98;100.00;68091.63;5068192;28;20116;-82
2021/03/15 05:23:38;;;;;;;12.60;4.93;;;;;;;-143.98;100.00;68091.63;5071344;28;20040;-82
2021/03/15 05:26:04;;;;;;;104.65;8.70;;;;;;;-143.98;100.00;68091.63;5073723;28;20180;-82
2021/03/15 05:28:31;;;;;;;19.50;4.97;;;;;;;-143.98;100.00;68091.63;5072774;28;20469;-82
2021/03/15 05:31:03;;;;;;;14.88;4.35;;;;;;;-143.98;100.00;68091.63;5072886;28;20278;-82
2021/03/15 05:33:36;;;;;;;12.95;5.07;;;;;;;-143.98;100.00;68091.63;5059295;28;20416;-82
2021/03/15 05:36:07;;;;;;;12.15;4.82;;;;;;;-143.98;100.00;68091.63;5056180;28;20126;-81
2021/03/15 05:38:34;;;;;;;78.15;8.35;;;;;;;-143.98;100.00;68091.63;5089454;28;20263;-82
2021/03/15 05:41:08;;;;;;;16.73;4.53;;;;;;;-143.98;100.00;68091.63;5054437;28;20103;-81
2021/03/15 05:43:58;;;;;;;11.10;4.57;;;;;;;-143.98;100.00;68091.63;5057194;28;20040;-82
2021/03/15 05:46:53;;;;;;;11.02;4.03;;;;;;;-143.98;100.00;68091.63;5072511;28;20393;-82
2021/03/15 05:49:41;;;;;;;13.77;4.70;;;;;;;-143.98;100.00;68091.63;5088724;28;20064;-82
2021/03/15 05:52:14;;;;;;;7.13;4.20;;;;;;;-143.98;100.00;68091.63;5089719;28;20477;-82
2021/03/15 05:55:22;;;;;;;10.52;5.03;;;;;;;-143.98;100.00;68091.63;5092118;28;20240;-82
2021/03/15 05:58:21;;;;;;;21.45;4.30;;;;;;;-143.98;100.00;68091.63;5093435;28;20106;-81
2021/03/15 06:01:36;;;;;;;12.23;3.65;;;;;;;-143.98;100.00;68091.63;5090712;28;20079;-82
2021/03/15 06:04:27;;;;;;;10.27;4.13;;;;;;;-143.98;100.00;68091.63;5073239;28;20044;-81
2021/03/15 06:06:56;;;;;;;12.05;3.80;;;;;;;-143.98;100.00;68091.63;5074795;28;20044;-82
2021/03/15 06:09:29;;;;;;;19.05;5.00;;;;;;;-143.98;100.00;68091.63;5075741;28;20064;-82
2021/03/15 06:12:01;;;;;;;15.98;4.97;;;;;;;-143.98;100.00;68091.63;5063431;28;20451;-82
2021/03/15 06:14:37;;;;;;;9.48;4.30;;;;;;;-143.98;100.00;68091.63;5086564;28;20048;-82
2021/03/15 06:17:10;;;;;;;10.80;4.32;;;;;;;-143.98;100.00;68091.63;5089888;28;20071;-82
2021/03/15 06:19:36;;;;;;;9.98;3.47;;;;;;;-143.98;100.00;68091.63;5097289;28;20117;-81
2021/03/15 06:22:03;;;;;;;12.68;4.05;;;;;;;-143.98;100.00;68091.63;5057877;28;20044;-82
2021/03/15 06:24:29;;;;;;;7.40;3.63;;;;;;;-143.98;100.00;68091.63;5058676;28;20051;-83
2021/03/15 06:26:57;;;;;;;18.77;4.57;;;;;;;-143.98;100.00;68091.63;5068002;28;20273;-82
2021/03/15 06:29:24;;;;;;;11.25;3.90;;;;;;;-143.98;100.00;68091.63;5056057;28;20074;-81
2021/03/15 06:31:50;;;;;;;13.23;3.47;;;;;;;-143.98;100.00;68091.63;5054992;28;20072;-83
2021/03/15 06:34:20;;;;;;;12.98;3.65;;;;;;;-143.98;100.00;68091.63;5055337;28;20110;-82
2021/03/15 06:36:47;;;;;;;9.80;3.90;;;;;;;-143.98;100.00;68091.63;5070484;28;20216;-82
2021/03/15 06:39:14;;;;;;;12.45;3.97;;;;;;;-143.98;100.00;68091.63;5052426;28;20049;-84
2021/03/15 06:41:41;;;;;;;17.65;4.13;;;;;;;-143.98;100.00;68091.63;5064601;28;20064;-83
2021/03/15 06:44:09;;;;;;;16.00;4.05;;;;;;;-143.98;100.00;68091.63;5069557;28;20524;-83
2021/03/15 06:46:51;;;;;;;13.65;4.07;;;;;;;-143.98;100.00;68091.63;5055265;28;20097;-83
2021/03/15 06:49:25;;;;;;;15.30;4.13;;;;;;;-143.98;100.00;68091.63;5079811;28;20232;-82
2021/03/15 06:52:11;;;;;;;11.48;3.80;;;;;;;-143.98;100.00;68091.63;5082602;28;20044;-82
2021/03/15 06:54:38;;;;;;;20.42;4.30;;;;;;;-143.98;100.00;68091.63;5075012;28;20392;-82
2021/03/15 06:57:22;;;;;;;17.33;4.45;;;;;;;-143.98;100.00;68091.63;5072414;28;20094;-81
2021/03/15 06:59:56;;;;;;;27.42;5.07;;;;;;;-143.98;100.00;68091.63;5073690;28;20121;-83
2021/03/15 07:02:30;;;;;;;19.85;4.40;;;;;;;-143.98;100.00;68091.63;5068623;28;20253;-81
2021/03/15 07:05:17;;;;;;;12.23;4.60;;;;;;;-143.98;100.00;68091.63;5084224;28;20040;-82
2021/03/15 07:07:53;;;;;;;19.40;4.65;;;;;;;-143.98;100.00;68091.63;5111614;28;20044;-82
2021/03/15 07:10:20;;;;;;;17.58;4.53;;;;;;;-143.98;100.00;68091.63;5062117;28;20044;-83
2021/03/15 07:12:50;;;;;;;17.67;4.70;;;;;;;-143.98;100.00;68091.63;5071123;28;20049;-85
2021/03/15 07:15:19;;;;;;;20.70;5.15;;;;;;;-143.98;100.00;68091.63;5039253;28;20063;-85
2021/03/15 07:17:45;;;;;;;23.45;4.30;;;;;;;-143.98;100.00;68091.63;5093236;28;20036;-85
2021/03/15 07:20:11;;;;;;;24.92;5.30;;;;;;;-143.98;100.00;68091.63;5059852;28;20419;-85
2021/03/15 07:23:09;;;;;;;26.67;5.18;;;;;;;-143.98;100.00;68091.63;5057334;28;20077;-84
2021/03/15 07:25:36;;;;;;;21.65;5.18;;;;;;;-143.98;100.00;68091.63;5077948;28;20375;-84
2021/03/15 07:28:03;;;;;;;22.58;5.80;;;;;;;-143.98;100.00;68091.63;5071189;28;20116;-84
2021/03/15 07:30:43;;;;;;;19.95;4.75;;;;;;;-143.98;100.00;68091.63;5104174;28;20057;-85
2021/03/15 07:33:12;;;;;;;14.00;4.05;;;;;;;-143.98;100.00;68091.63;5055131;28;20121;-81
2021/03/15 07:35:42;;;;;;;21.77;4.88;;;;;;;-143.98;100.00;68091.63;5103094;28;20044;-82
2021/03/15 07:38:08;;;;;;;21.67;4.68;;;;;;;-143.98;100.00;68091.63;5054403;28;20133;-81
2021/03/15 07:40:41;;;;;;;16.63;4.68;;;;;;;-143.98;100.00;68091.63;5051438;28;20293;-81
2021/03/15 07:43:13;;;;;;;14.23;4.15;;;;;;;-143.98;100.00;68091.63;5050140;28;20052;-81
2021/03/15 07:45:44;;;;;;;23.52;5.22;;;;;;;-143.98;100.00;68091.63;5049132;28;20315;-81
2021/03/15 07:48:22;;;;;;;18.00;5.05;;;;;;;-143.98;100.00;68091.63;5068167;28;20237;-81
2021/03/15 07:51:03;;;;;;;21.97;4.57;;;;;;;-143.98;100.00;68091.63;5052679;28;20290;-82
2021/03/15 07:53:41;;;;;;;23.23;4.65;;;;;;;-143.98;100.00;68091.63;5067946;28;20056;-82
2021/03/15 07:56:22;;;;;;;20.60;4.80;;;;;;;-143.98;100.00;68091.63;5051579;28;20220;-82
2021/03/15 07:58:52;;;;;;;27.17;5.30;;;;;;;-143.98;100.00;68091.63;5037668;28;20057;-82
2021/03/15 08:01:21;;;;;;;23.92;5.60;;;;;;;-143.98;100.00;68091.63;5053779;28;20052;-82
2021/03/15 08:03:56;;;;;;;16.20;4.20;;;;;;;-143.98;100.00;68091.63;5049638;28;20067;-80
2021/03/15 08:06:24;;;;;;;25.75;6.40;;;;;;;-143.98;100.00;68091.63;5068731;28;20052;-81
2021/03/15 08:08:54;;;;;;;16.95;4.32;;;;;;;-143.98;100.00;68091.63;5071685;28;20053;-82
2021/03/15 08:11:21;;;;;;;16.92;4.43;;;;;;;-143.98;100.00;68091.63;5051682;28;20397;-81
2021/03/15 08:13:49;;;;;;;20.40;4.05;;;;;;;-143.98;100.00;68091.63;5070945;28;20044;-82
2021/03/15 08:16:23;;;;;;;16.50;4.60;;;;;;;-143.98;100.00;68091.63;5069787;28;20055;-81
2021/03/15 08:18:51;;;;;;;20.48;4.50;;;;;;;-143.98;100.00;68091.63;5056226;28;20071;-82
2021/03/15 08:21:42;;;;;;;23.33;5.10;;;;;;;-143.98;100.00;68091.63;5054612;28;20439;-83
2021/03/15 08:24:11;;;;;;;19.85;4.57;;;;;;;-143.98;100.00;68091.63;5050810;28;20185;-81
2021/03/15 08:26:46;;;;;;;26.02;4.32;;;;;;;-143.98;100.00;68091.63;5069626;28;20084;-81
2021/03/15 08:29:15;;;;;;;26.70;4.95;;;;;;;-143.98;100.00;68091.63;5068969;28;20243;-80
2021/03/15 08:31:48;;;;;;;19.83;4.25;;;;;;;-143.98;100.00;68091.63;5052373;28;20286;-81
2021/03/15 08:34:19;;;;;;;16.17;3.75;;;;;;;-143.98;100.00;68091.63;5065568;28;20056;-80
2021/03/15 08:36:56;;;;;;;15.43;4.07;;;;;;;-143.98;100.00;68091.63;5035130;28;20198;-81
2021/03/15 08:39:35;;;;;;;10.70;2.80;;;;;;;-143.98;100.00;68091.63;5045788;28;20052;-81
2021/03/15 08:42:14;;;;;;;16.63;3.58;;;;;;;-143.98;100.00;68091.63;5047829;28;20104;-81
2021/03/15 08:45:26;;;;;;;16.05;3.17;;;;;;;-143.98;100.00;68091.63;5049411;28;20059;-80
2021/03/15 08:48:01;;;;;;;11.55;2.58;;;;;;;-143.98;100.00;68091.63;5031073;28;20331;-82
2021/03/15 08:50:45;;;;;;;10.20;2.70;;;;;;;-143.98;100.00;68091.63;5036541;28;20049;-81
2021/03/15 08:53:38;;;;;;;16.73;3.05;;;;;;;-143.98;100.00;68091.63;5050604;28;20041;-81
2021/03/15 08:56:35;;;;;;;15.15;3.28;;;;;;;-143.98;100.00;68091.63;5048791;28;20056;-81
2021/03/15 08:59:09;;;;;;;14.43;3.28;;;;;;;-143.98;100.00;68091.63;5047990;28;20499;-80
2021/03/15 09:01:57;;;;;;;14.75;3.00;;;;;;;-143.98;100.00;68091.63;5063697;28;20235;-81
2021/03/15 09:04:34;;;;;;;12.77;2.45;;;;;;;-143.98;100.00;68091.63;5032196;28;20064;-81
2021/03/15 09:07:03;;;;;;;17.23;2.78;;;;;;;-143.98;100.00;68091.63;5047979;28;20052;-80
2021/03/15 09:09:30;;;;;;;9.30;2.20;;;;;;;-143.98;100.00;68091.63;5034249;28;20055;-81
2021/03/15 09:11:58;;;;;;;11.38;3.13;;;;;;;-143.98;100.00;68091.63;5028948;28;20209;-80
2021/03/15 09:14:27;;;;;;;14.50;3.08;;;;;;;-143.98;100.00;68091.63;5033089;28;20057;-81
2021/03/15 09:16:57;;;;;;;12.90;2.67;;;;;;;-143.98;100.00;68091.63;5082978;28;20049;-80
2021/03/15 09:19:39;;;;;;;19.42;3.15;;;;;;;-143.98;100.00;68091.63;5088579;28;20099;-82
2021/03/15 09:22:22;;;;;;;15.20;2.55;;;;;;;-143.98;100.00;68091.63;5098977;28;20194;-81
2021/03/15 09:24:59;;;;;;;16.10;3.10;;;;;;;-143.98;100.00;68091.63;5049592;28;20068;-82
2021/03/15 09:27:48;;;;;;;15.40;3.00;;;;;;;-143.98;100.00;68091.63;5078531;28;20157;-83
2021/03/15 09:30:35;;;;;;;24.52;3.17;;;;;;;-143.98;100.00;68091.63;5076530;28;20540;-84
2021/03/15 09:33:02;;;;;;;14.13;3.00;;;;;;;-143.98;100.00;68091.63;5091922;28;20284;-83
2021/03/15 09:35:39;;;;;;;17.23;2.67;;;;;;;-143.98;100.00;68091.63;5072155;28;20075;-83
2021/03/15 09:38:15;;;;;;;16.30;2.95;;;;;;;-143.98;100.00;68091.63;5059866;28;20390;-85
2021/03/15 09:40:57;;;;;;;16.08;3.40;;;;;;;-143.98;100.00;68091.63;5082896;28;20067;-84
2021/03/15 09:43:29;;;;;;;19.95;3.03;;;;;;;-143.98;100.00;68091.63;5056355;28;20299;-84
2021/03/15 09:46:02;;;;;;;23.13;3.95;;;;;;;-143.98;100.00;68091.63;5074270;28;20232;-84
2021/03/15 09:48:32;;;;;;;12.95;2.75;;;;;;;-143.98;100.00;68091.63;5078751;28;20128;-85
2021/03/15 09:51:08;;;;;;;20.20;2.53;;;;;;;-143.98;100.00;68091.63;5068401;28;20128;-84
2021/03/15 09:53:36;;;;;;;18.58;3.33;;;;;;;-143.98;100.00;68091.63;5066681;28;20179;-85
2021/03/15 09:56:07;;;;;;;16.60;3.17;;;;;;;-143.98;100.00;68091.63;5058562;28;20041;-85
2021/03/15 09:58:36;;;;;;;19.85;2.78;;;;;;;-143.98;100.00;68091.63;5067355;28;20205;-85
2021/03/15 10:01:19;;;;;;;15.25;2.35;;;;;;;-143.98;100.00;68091.63;5056086;28;20057;-84
2021/03/15 10:03:55;;;;;;;15.57;2.17;;;;;;;-143.98;100.00;68091.63;5059128;28;20130;-83
2021/03/15 10:06:27;;;;;;;21.88;2.00;;;;;;;-143.98;100.00;68091.63;5089736;28;20049;-83
2021/03/15 10:09:04;;;;;;;11.63;2.05;;;;;;;-143.98;100.00;68091.63;5071896;28;20219;-82
2021/03/15 10:11:31;;;;;;;16.65;2.55;;;;;;;-143.98;100.00;68091.63;5051563;28;20210;-81
2021/03/15 10:14:01;;;;;;;15.20;2.00;;;;;;;-143.98;100.00;68091.63;5068625;28;20052;-81
2021/03/15 10:16:28;;;;;;;19.67;2.22;;;;;;;-143.98;100.00;68091.63;5069383;28;20288;-82
2021/03/15 10:18:57;;;;;;;14.20;2.28;;;;;;;-143.98;100.00;68091.63;5070169;28;20075;-80
2021/03/15 10:21:28;;;;;;;18.73;2.72;;;;;;;-143.98;100.00;68091.63;5077917;28;20049;-82
2021/03/15 10:23:58;;;;;;;20.38;2.50;;;;;;;-143.98;100.00;68091.63;5083146;28;20044;-82
2021/03/15 10:26:31;;;;;;;19.92;2.30;;;;;;;-143.98;100.00;68091.63;5081661;28;20048;-82
2021/03/15 10:28:59;;;;;;;12.63;2.55;;;;;;;-143.98;100.00;68091.63;5060223;28;20048;-80
2021/03/15 10:31:25;;;;;;;18.85;2.47;;;;;;;-143.98;100.00;68091.63;5077219;28;20415;-82
2021/03/15 10:33:52;;;;;;;11.00;2.78;;;;;;;-143.98;100.00;68091.63;5080284;28;20054;-81
2021/03/15 10:36:24;;;;;;;12.25;2.00;;;;;;;-143.98;100.00;68091.63;5094568;28;20052;-81
2021/03/15 10:38:54;;;;;;;15.88;2.25;;;;;;;-143.98;100.00;68091.63;5077930;28;20136;-82
2021/03/15 10:41:21;;;;;;;13.13;1.85;;;;;;;-143.98;100.00;68091.63;5062210;28;20204;-81
2021/03/15 10:43:48;;;;;;;12.57;1.92;;;;;;;-143.98;100.00;68091.63;5066714;28;20126;-82
2021/03/15 10:46:23;;;;;;;15.18;2.60;;;;;;;-143.98;100.00;68091.63;5058721;28;20096;-83
2021/03/15 10:48:50;;;;;;;21.00;2.70;;;;;;;-143.98;100.00;68091.63;5095531;28;20271;-82
2021/03/15 10:51:23;;;;;;;14.90;2.30;;;;;;;-143.98;100.00;68091.63;5064237;28;20051;-81
2021/03/15 10:54:09;;;;;;;12.48;2.17;;;;;;;-143.98;100.00;68091.63;5066761;28;20083;-80
2021/03/15 10:57:08;;;;;;;13.68;2.90;;;;;;;-143.98;100.00;68091.63;5094179;28;20210;-81
2021/03/15 10:59:35;;;;;;;13.45;2.63;;;;;;;-143.98;100.00;68091.63;5093258;28;20044;-80
2021/03/15 11:02:11;;;;;;;21.13;2.70;;;;;;;-143.98;100.00;68091.63;5079706;28;20176;-82
2021/03/15 11:04:39;;;;;;;16.83;2.20;;;;;;;-143.98;100.00;68091.63;5081349;28;20058;-81
2021/03/15 11:07:25;;;;;;;27.02;3.33;;;;;;;-143.98;100.00;68091.63;5066711;28;20064;-82
2021/03/15 11:10:24;;;;;;;16.33;2.27;;;;;;;-143.98;100.00;68091.63;5096452;28;20224;-82
2021/03/15 11:12:53;;;;;;;18.20;2.90;;;;;;;-143.98;100.00;68091.63;5063538;28;20466;-81
2021/03/15 11:15:29;;;;;;;19.67;3.08;;;;;;;-143.98;100.00;68091.63;5079334;28;20044;-81
2021/03/15 11:18:08;;;;;;;25.15;2.72;;;;;;;-143.98;100.00;68091.63;5082116;28;20449;-82
2021/03/15 11:20:47;;;;;;;22.33;2.83;;;;;;;-143.98;100.00;68091.63;5078802;28;20113;-82
2021/03/15 11:23:31;;;;;;;18.80;3.05;;;;;;;-143.98;100.00;68091.63;5105873;28;20055;-81
2021/03/15 11:26:16;;;;;;;18.13;3.05;;;;;;;-143.98;100.00;68091.63;5089469;28;20044;-81
2021/03/15 11:28:52;;;;;;;23.95;3.13;;;;;;;-143.98;100.00;68091.63;5065822;28;20157;-80
2021/03/15 11:31:30;;;;;;;21.98;2.88;;;;;;;-143.98;100.00;68091.63;5008542;28;20068;-80